AirNav   Pilot Hours Calculator
 
 1079 users online  

19OI Airc Helistop
Wintersville, Ohio, USA

GOING TO WINTERSVILLE?


FAA INFORMATION EFFECTIVE 22 APRIL 2021

Location

FAA Identifier: 19OI
Lat/Long: 40-22-50.9430N 080-42-19.2820W
40-22.849050N 080-42.321367W
40.3808175,-80.7053561
(estimated)
Elevation: 1218 ft. / 371 m (estimated)
Variation: 07W (1985)
From city: 1 mile NW of WINTERSVILLE, OH
Time zone: UTC -4 (UTC -5 during Standard Time)
Zip code: 43953

Heliport Operations

Heliport use: Private use, PERSONAL USE.
Activation date: 09/1977
Control tower: no
ARTCC: CLEVELAND CENTER
FSS: CLEVELAND FLIGHT SERVICE STATION
Attendance: UNATNDD
Wind indicator: yes
Segmented circle: no
Lights: FOR PERIMETER LGTS, PHONE 614-264-7704.

Heliport Communications

WX ASOS at HLG (13 nm S): 127.375 (304-277-3504)

Nearby radio navigation aids

VOR radial/distance  VOR name  Freq  Var
HLGr326/9.6WHEELING VOR/DME112.2007W
AIRr020/22.4BELLAIRE VOR/DME117.1007W
AGCr290/31.0ALLEGHENY VOR/DME110.0009W
EWCr228/34.9ELLWOOD CITY VOR/DME115.8008W
BSVr127/39.5BRIGGS VOR/DME112.4004W

 
NDB name  Hdg/Dist  Freq  Var  ID
CADIZ065/16.523907WCFX -.-. ..-. -..-

Heliport Services

Runway Information

Helipad H1

Dimensions: 25 x 25 ft. / 8 x 8 m
Surface: asphalt
PAD WITHIN 150' X 150' TURF LNDG AREA.
Runway edge lights: PERI
Latitude: 40-22.849050N
Longitude: 080-42.321367W
Elevation: 1218.0 ft.
Traffic pattern: leftleft

Heliport Ownership and Management from official FAA records

Ownership: Privately-owned
Owner: AM INDUS & RESOURCES CORP
201 LURAY DR
WINTERSVILLE, OH 43952
Phone 614-264-7704
Manager: MARK PEKLINSKY
201 LURAY DR
WINTERSVILLE, OH 43952
Phone 614-264-7704

Additional Remarks

FOR CD CTC PITTSBURGH APCH AT 412-472-5591

Instrument Procedures

There are no published instrument procedures at 19OI.

Some nearby airports with instrument procedures:

2G2 - Jefferson County Airpark (1 nm S)
KHLG - Wheeling Ohio County Airport (13 nm S)
8G6 - Harrison County Airport (16 nm SW)
02G - Columbiana County Airport (18 nm N)
KTSO - Carroll County-Tolson Airport (20 nm NW)
 
Loc | Ops | Rwys | IFR | FBO | Links
Com | Nav | Svcs | Stats | Notes
Area around 19OI (Airc Helistop)
 
Road maps at: MapQuest Bing Google
 
Aerial photo
No photo
 
Sectional chart

 
Airport distance calculator
Flying to Airc Helistop? Find the distance to fly.

From to 19OI

Sunrise and sunset
Times for 16-May-2021
 Local
(UTC-4)
 Zulu
(UTC)
Morning civil twilight05:3609:36
Sunrise06:0710:07
Sunset20:3200:32
Evening civil twilight21:0301:03

Current date and time
Zulu (UTC)  17-May-2021 00:07:30
Local (UTC-4)  16-May-2021 20:07:30
 
METAR
KHLG 
13nm S 
162353Z 10004KT 10SM BKN100 18/06 A3020 RMK AO2 SLP228 T01780061 10211 20178 58002
KPIT 
21nm E 
162351Z 00000KT 10SM SCT095 BKN250 18/04 A3020 RMK AO2 SLP231 T01780039 10200 20178 58001
KAFJ 
26nm SE 
162356Z AUTO 14003KT 10SM FEW100 18/06 A3023 RMK AO2 SLP237 T01830056 10200 20183 58001
TAF
KHLG 
13nm S 
161720Z 1618/1718 VRB04KT P6SM BKN080
NOTAMs
Click for the latest NOTAMs
NOTAMs are issued by the DoD/FAA and will open in a separate window not controlled by AirNav.

 

 
 

Would you like to see your business listed on this page?

 If your business provides an interesting product or service to pilots, flight crews, aircraft, or users of the Airc Helistop, you should consider listing it here.  To start the listing process, click on the button below
 
Add a business
 

Other Pages about Airc Helistop

Update a link
 
Copyright © AirNav, LLC. All rights reserved. Privacy Policy  Contact